createdAt,value
2023-03-01T00:00:06.203Z,2.28
2023-03-01T00:02:38.268Z,2.30
2023-03-01T00:05:05.727Z,2.53
2023-03-01T00:07:32.452Z,2.28
2023-03-01T00:09:59.141Z,2.03
2023-03-01T00:12:25.770Z,2.30
2023-03-01T00:14:52.594Z,2.58
2023-03-01T00:17:19.574Z,2.63
2023-03-01T00:19:46.165Z,2.35
2023-03-01T00:22:12.836Z,2.42
2023-03-01T00:24:39.537Z,2.20
2023-03-01T00:27:06.213Z,2.20
2023-03-01T00:29:32.958Z,2.50
2023-03-01T00:32:00.469Z,1.98
2023-03-01T00:34:27.122Z,2.58
2023-03-01T00:36:55.102Z,2.40
2023-03-01T00:39:21.832Z,2.40
2023-03-01T00:41:48.513Z,2.22
2023-03-01T00:44:15.211Z,2.42
2023-03-01T00:46:42.046Z,2.60
2023-03-01T00:49:08.896Z,2.58
2023-03-01T00:51:35.897Z,2.30
2023-03-01T00:54:03.700Z,2.42
2023-03-01T00:56:31.812Z,2.30
2023-03-01T00:58:58.904Z,2.60
2023-03-01T01:01:31.890Z,2.60
2023-03-01T01:04:05.013Z,2.58
2023-03-01T01:06:46.372Z,2.80
2023-03-01T01:09:18.850Z,2.53
2023-03-01T01:11:48.137Z,2.38
2023-03-01T01:14:15.293Z,2.22
2023-03-01T01:16:42.004Z,2.65
2023-03-01T01:19:09.772Z,2.25
2023-03-01T01:21:37.297Z,2.63
2023-03-01T01:24:05.778Z,2.40
2023-03-01T01:26:34.624Z,2.80
2023-03-01T01:29:03.440Z,2.70
2023-03-01T01:31:31.313Z,2.85
2023-03-01T01:33:59.679Z,2.30
2023-03-01T01:36:26.520Z,2.60
2023-03-01T01:38:53.544Z,2.25
2023-03-01T01:41:21.381Z,2.47
2023-03-01T01:43:51.289Z,2.72
2023-03-01T01:46:31.725Z,2.80
2023-03-01T01:49:04.868Z,2.92
2023-03-01T01:51:39.891Z,3.50
2023-03-01T01:54:23.850Z,2.50
2023-03-01T01:56:57.170Z,2.92
2023-03-01T01:59:26.096Z,2.67
2023-03-01T02:01:53.800Z,2.30
2023-03-01T02:04:21.589Z,2.60
2023-03-01T02:07:11.258Z,2.70
2023-03-01T02:09:38.196Z,2.65
2023-03-01T02:12:05.915Z,2.47
2023-03-01T02:14:34.145Z,2.92
2023-03-01T02:17:00.816Z,2.45
2023-03-01T02:19:50.970Z,2.83
2023-03-01T02:22:24.355Z,2.60
2023-03-01T02:25:20.258Z,2.80
2023-03-01T02:28:04.688Z,2.85
2023-03-01T02:30:33.954Z,2.63
2023-03-01T02:33:05.842Z,2.45
2023-03-01T02:35:37.872Z,2.70
2023-03-01T02:38:08.524Z,2.47
2023-03-01T02:40:39.278Z,2.88
2023-03-01T02:43:09.243Z,3.55
2023-03-01T02:45:36.259Z,2.63
2023-03-01T02:48:03.816Z,2.47
2023-03-01T02:50:30.683Z,2.83
2023-03-01T02:53:06.076Z,2.30
2023-03-01T02:55:32.851Z,2.55
2023-03-01T02:58:02.992Z,2.33
2023-03-01T03:00:46.571Z,2.70
2023-03-01T03:03:17.876Z,2.53
2023-03-01T03:05:45.409Z,2.92
2023-03-01T03:08:12.599Z,2.50
2023-03-01T03:10:42.266Z,2.90
2023-03-01T03:13:14.500Z,2.63
2023-03-01T03:15:43.288Z,2.70
2023-03-01T03:18:12.738Z,3.30
2023-03-01T03:20:41.404Z,2.97
2023-03-01T03:23:08.441Z,2.60
2023-03-01T03:25:38.769Z,2.70
2023-03-01T03:28:10.713Z,3.03
2023-03-01T03:30:40.232Z,2.97
2023-03-01T03:33:08.242Z,2.65
2023-03-01T03:35:44.561Z,2.92
2023-03-01T03:38:16.729Z,2.28
2023-03-01T03:40:52.144Z,2.35
2023-03-01T03:43:22.493Z,2.63
2023-03-01T03:45:51.225Z,2.35
2023-03-01T03:48:19.232Z,2.93
2023-03-01T03:50:51.594Z,2.75
2023-03-01T03:53:19.572Z,2.75
2023-03-01T03:55:50.122Z,2.83
2023-03-01T03:58:19.251Z,2.70
2023-03-01T04:00:46.851Z,2.70
2023-03-01T04:03:16.024Z,2.80
2023-03-01T04:05:43.176Z,2.95
2023-03-01T04:08:10.544Z,2.47
2023-03-01T04:10:45.830Z,2.85
2023-03-01T04:13:15.336Z,2.90
2023-03-01T04:18:10.903Z,2.80
2023-03-01T04:20:37.597Z,2.95
2023-03-01T04:23:17.257Z,2.80
2023-03-01T04:25:47.153Z,2.90
2023-03-01T04:28:13.844Z,2.85
2023-03-01T04:30:40.757Z,2.78
2023-03-01T04:33:09.227Z,2.40
2023-03-01T04:35:37.424Z,2.67
2023-03-01T04:38:05.082Z,2.78
2023-03-01T04:40:32.101Z,2.83
2023-03-01T04:42:58.920Z,3.08
2023-03-01T04:45:25.912Z,2.78
2023-03-01T04:47:53.257Z,2.90
2023-03-01T04:50:24.578Z,3.42
2023-03-01T04:52:51.389Z,3.15
2023-03-01T04:55:18.354Z,3.10
2023-03-01T04:57:45.108Z,3.00
2023-03-01T05:00:23.057Z,2.72
2023-03-01T05:02:55.597Z,3.20
2023-03-01T05:05:34.322Z,3.20
2023-03-01T05:08:03.736Z,3.30
2023-03-01T05:10:31.841Z,3.40
2023-03-01T05:13:00.037Z,3.20
2023-03-01T05:15:28.898Z,3.30
2023-03-01T05:17:59.643Z,3.30
2023-03-01T05:20:30.914Z,3.13
2023-03-01T05:23:00.605Z,3.15
2023-03-01T05:25:27.896Z,3.15
2023-03-01T05:27:54.660Z,3.33
2023-03-01T05:30:22.562Z,3.55
2023-03-01T05:32:50.915Z,3.72
2023-03-01T05:35:18.944Z,3.50
2023-03-01T05:37:48.323Z,3.42
2023-03-01T05:40:20.833Z,3.92
2023-03-01T05:42:55.922Z,3.22
2023-03-01T05:45:23.874Z,3.20
2023-03-01T05:47:51.221Z,4.07
2023-03-01T05:50:24.022Z,3.58
2023-03-01T05:53:02.397Z,3.10
2023-03-01T05:55:31.415Z,3.15
2023-03-01T05:58:03.840Z,3.40
2023-03-01T06:00:31.675Z,3.63
2023-03-01T06:02:59.792Z,4.05
2023-03-01T06:05:27.764Z,3.65
2023-03-01T06:07:54.821Z,4.03
2023-03-01T06:10:23.537Z,3.42
2023-03-01T06:12:50.371Z,3.40
2023-03-01T06:15:17.985Z,3.67
2023-03-01T06:17:46.916Z,3.63
2023-03-01T06:20:19.516Z,3.60
2023-03-01T06:22:47.423Z,3.55
2023-03-01T06:25:16.480Z,3.45
2023-03-01T06:27:43.514Z,3.55
2023-03-01T06:30:13.125Z,3.90
2023-03-01T06:32:42.973Z,3.42
2023-03-01T06:35:15.390Z,3.50
2023-03-01T06:37:42.610Z,3.50
2023-03-01T06:40:12.419Z,3.30
2023-03-01T06:42:41.125Z,4.00
2023-03-01T06:45:09.196Z,4.00
2023-03-01T06:47:36.063Z,3.63
2023-03-01T06:50:04.175Z,3.72
2023-03-01T06:52:30.821Z,4.30
2023-03-01T06:54:57.505Z,3.83
2023-03-01T06:57:24.597Z,4.10
2023-03-01T06:59:51.466Z,4.68
2023-03-01T07:02:18.269Z,4.15
2023-03-01T07:04:44.871Z,4.40
2023-03-01T07:07:11.701Z,4.03
2023-03-01T07:09:38.637Z,3.83
2023-03-01T07:12:05.659Z,4.15
2023-03-01T07:14:32.385Z,3.95
2023-03-01T07:16:59.238Z,4.07
2023-03-01T07:19:26.002Z,4.30
2023-03-01T07:21:52.810Z,4.20
2023-03-01T07:24:19.860Z,3.70
2023-03-01T07:26:52.960Z,4.10
2023-03-01T07:29:19.751Z,4.43
2023-03-01T07:31:46.967Z,3.90
2023-03-01T07:34:13.835Z,4.32
2023-03-01T07:36:44.226Z,4.25
2023-03-01T07:39:12.097Z,4.20
2023-03-01T07:41:39.174Z,4.60
2023-03-01T07:44:05.927Z,4.55
2023-03-01T07:46:32.967Z,4.13
2023-03-01T07:48:59.887Z,4.95
2023-03-01T07:51:26.534Z,4.90
2023-03-01T07:53:53.165Z,4.72
2023-03-01T07:56:20.572Z,4.65
2023-03-01T07:58:49.225Z,4.95
2023-03-01T08:01:19.050Z,4.45
2023-03-01T08:03:46.550Z,5.25
2023-03-01T08:06:15.065Z,4.70
2023-03-01T08:08:42.205Z,4.88
2023-03-01T08:11:11.509Z,5.07
2023-03-01T08:13:38.356Z,4.70
2023-03-01T08:16:13.200Z,5.07
2023-03-01T08:18:40.235Z,5.43
2023-03-01T08:21:10.304Z,5.60
2023-03-01T08:23:37.497Z,6.38
2023-03-01T08:26:11.694Z,6.57
2023-03-01T08:28:39.380Z,6.97
2023-03-01T08:31:33.861Z,7.68
2023-03-01T08:34:01.933Z,8.10
2023-03-01T08:36:34.650Z,6.95
2023-03-01T08:39:01.432Z,9.05
2023-03-01T08:41:28.550Z,7.57
2023-03-01T08:43:59.743Z,8.40
2023-03-01T08:46:35.460Z,7.88
2023-03-01T08:49:06.566Z,7.88
2023-03-01T08:51:37.497Z,8.25
2023-03-01T08:54:06.604Z,8.23
2023-03-01T08:56:34.272Z,8.00
2023-03-01T08:59:00.899Z,8.30
2023-03-01T09:01:27.614Z,8.13
2023-03-01T09:03:54.569Z,8.63
2023-03-01T09:06:21.375Z,7.78
2023-03-01T09:08:50.263Z,8.13
2023-03-01T09:11:21.285Z,7.85
2023-03-01T09:13:50.281Z,7.78
2023-03-01T09:16:20.197Z,7.35
2023-03-01T09:18:51.621Z,7.82
2023-03-01T09:21:27.501Z,7.68
2023-03-01T09:24:04.584Z,7.85
2023-03-01T09:26:31.389Z,7.43
2023-03-01T09:28:58.219Z,7.03
2023-03-01T09:31:25.873Z,7.45
2023-03-01T09:33:54.822Z,7.72
2023-03-01T09:36:24.215Z,7.30
2023-03-01T09:38:53.068Z,7.30
2023-03-01T09:41:38.279Z,7.93
2023-03-01T09:44:11.739Z,7.72
2023-03-01T09:46:42.718Z,8.02
2023-03-01T09:49:20.177Z,8.27
2023-03-01T09:51:56.789Z,6.97
2023-03-01T09:54:23.654Z,7.28
2023-03-01T09:56:53.381Z,7.40
2023-03-01T09:59:45.976Z,7.80
2023-03-01T10:02:30.254Z,7.75
2023-03-01T10:05:11.200Z,7.30
2023-03-01T10:07:55.821Z,8.15
2023-03-01T10:10:34.804Z,7.53
2023-03-01T10:13:35.001Z,7.13
2023-03-01T10:16:11.343Z,7.07
2023-03-01T10:18:40.847Z,6.82
2023-03-01T10:23:45.683Z,6.68
2023-03-01T10:26:45.850Z,7.10
2023-03-01T10:29:14.113Z,6.85
2023-03-01T10:31:53.134Z,6.57
2023-03-01T10:34:29.652Z,7.03
2023-03-01T10:37:20.267Z,6.90
2023-03-01T10:39:57.355Z,6.50
2023-03-01T10:42:29.382Z,7.00
2023-03-01T10:44:58.717Z,7.22
2023-03-01T10:47:28.799Z,6.65
2023-03-01T10:50:01.927Z,6.10
2023-03-01T10:52:35.678Z,6.55
2023-03-01T10:55:26.206Z,6.60
2023-03-01T10:58:08.604Z,6.43
2023-03-01T11:00:48.137Z,5.97
2023-03-01T11:03:21.885Z,6.13
2023-03-01T11:05:54.679Z,6.30
2023-03-01T11:08:37.098Z,6.63
2023-03-01T11:11:30.724Z,6.22
2023-03-01T11:14:19.383Z,6.68
2023-03-01T11:17:34.666Z,6.47
2023-03-01T11:20:14.631Z,6.65
2023-03-01T11:22:56.651Z,6.47
2023-03-01T11:25:28.003Z,6.15
2023-03-01T11:27:55.597Z,6.53
2023-03-01T11:30:28.583Z,6.40
2023-03-01T11:33:04.412Z,6.20
2023-03-01T11:35:34.341Z,6.32
2023-03-01T11:38:13.312Z,6.30
2023-03-01T11:41:18.958Z,6.15
2023-03-01T11:43:48.457Z,6.40
2023-03-01T11:49:18.621Z,6.15
2023-03-01T11:51:54.484Z,6.13
2023-03-01T11:54:35.882Z,6.57
2023-03-01T11:57:15.839Z,6.20
2023-03-01T12:00:00.897Z,7.15
2023-03-01T12:02:40.061Z,6.60
2023-03-01T12:05:16.020Z,6.53
2023-03-01T12:07:54.206Z,6.25
2023-03-01T12:10:39.396Z,6.18
2023-03-01T12:13:38.645Z,6.43
2023-03-01T12:18:40.436Z,6.43
2023-03-01T12:21:13.008Z,6.07
2023-03-01T12:24:02.210Z,5.70
2023-03-01T12:26:34.377Z,6.10
2023-03-01T12:29:27.404Z,6.35
2023-03-01T12:32:19.931Z,5.78
2023-03-01T12:35:01.508Z,6.10
2023-03-01T12:37:51.465Z,6.50
2023-03-01T12:40:38.904Z,6.00
2023-03-01T12:43:28.423Z,5.65
2023-03-01T12:46:40.234Z,6.10
2023-03-01T12:49:13.661Z,5.63
2023-03-01T12:51:43.929Z,5.43
2023-03-01T12:54:20.849Z,5.53
2023-03-01T12:56:53.184Z,5.72
2023-03-01T12:59:38.513Z,6.00
2023-03-01T13:02:32.494Z,5.40
2023-03-01T13:05:08.144Z,5.47
2023-03-01T13:07:40.420Z,5.60
2023-03-01T13:10:19.772Z,5.75
2023-03-01T13:13:03.265Z,6.05
2023-03-01T13:15:35.448Z,5.57
2023-03-01T13:18:26.413Z,5.38
2023-03-01T13:21:11.895Z,5.68
2023-03-01T13:23:40.587Z,5.22
2023-03-01T13:26:16.563Z,5.83
2023-03-01T13:28:46.110Z,6.03
2023-03-01T13:31:22.116Z,5.38
2023-03-01T13:33:52.763Z,5.70
2023-03-01T13:36:28.900Z,5.35
2023-03-01T13:38:59.229Z,5.68
2023-03-01T13:41:43.882Z,5.22
2023-03-01T13:44:32.829Z,5.43
2023-03-01T13:47:18.395Z,5.25
2023-03-01T13:50:05.006Z,4.88
2023-03-01T13:52:38.539Z,5.55
2023-03-01T13:55:14.903Z,4.95
2023-03-01T13:57:46.797Z,5.60
2023-03-01T14:00:35.847Z,5.10
2023-03-01T14:03:06.351Z,5.20
2023-03-01T14:05:34.852Z,4.95
2023-03-01T14:08:01.502Z,5.45
2023-03-01T14:10:38.044Z,5.05
2023-03-01T14:13:19.891Z,5.13
2023-03-01T14:16:01.869Z,5.00
2023-03-01T14:18:44.665Z,4.80
2023-03-01T14:21:15.709Z,4.68
2023-03-01T14:23:43.155Z,5.05
2023-03-01T14:26:13.005Z,5.30
2023-03-01T14:28:40.833Z,5.07
2023-03-01T14:31:36.248Z,4.47
2023-03-01T14:34:06.198Z,4.90
2023-03-01T14:36:35.301Z,4.40
2023-03-01T14:39:06.063Z,4.65
2023-03-01T14:41:36.838Z,4.78
2023-03-01T14:44:14.591Z,4.30
2023-03-01T14:46:44.589Z,4.82
2023-03-01T14:49:16.304Z,4.25
2023-03-01T14:51:50.957Z,4.47
2023-03-01T14:54:43.118Z,4.13
2023-03-01T14:57:22.848Z,4.63
2023-03-01T14:59:51.805Z,4.03
2023-03-01T15:02:21.776Z,4.72
2023-03-01T15:04:52.569Z,4.35
2023-03-01T15:07:20.367Z,4.15
2023-03-01T15:09:47.789Z,4.57
2023-03-01T15:12:29.682Z,4.50
2023-03-01T15:15:04.336Z,4.30
2023-03-01T15:17:39.226Z,3.95
2023-03-01T15:20:17.736Z,3.95
2023-03-01T15:22:49.562Z,4.27
2023-03-01T15:25:22.340Z,3.47
2023-03-01T15:27:51.502Z,4.03
2023-03-01T15:30:38.520Z,3.70
2023-03-01T15:33:30.553Z,3.60
2023-03-01T15:35:59.674Z,4.10
2023-03-01T15:38:29.153Z,3.58
2023-03-01T15:43:47.433Z,3.92
2023-03-01T15:46:26.013Z,3.72
2023-03-01T15:48:57.435Z,3.90
2023-03-01T15:51:36.843Z,3.90
2023-03-01T15:56:33.435Z,3.55
2023-03-01T15:59:02.367Z,3.35
2023-03-01T16:01:30.128Z,3.43
2023-03-01T16:03:58.454Z,3.72
2023-03-01T16:06:25.454Z,3.78
2023-03-01T16:08:52.155Z,3.58
2023-03-01T16:11:20.846Z,3.10
2023-03-01T16:13:47.833Z,3.40
2023-03-01T16:16:17.459Z,3.33
2023-03-01T16:18:47.020Z,3.00
2023-03-01T16:26:11.473Z,2.90
2023-03-01T16:28:38.344Z,3.22
2023-03-01T16:31:05.562Z,3.00
2023-03-01T16:33:34.188Z,3.20
2023-03-01T16:36:07.380Z,3.60
2023-03-01T16:38:34.431Z,2.80
2023-03-01T16:41:01.502Z,3.30
2023-03-01T16:43:28.358Z,2.88
2023-03-01T16:45:55.168Z,3.10
2023-03-01T16:48:21.901Z,3.22
2023-03-01T16:50:57.993Z,2.80
2023-03-01T16:53:24.623Z,2.75
2023-03-01T16:56:11.943Z,2.90
2023-03-01T16:58:40.925Z,2.85
2023-03-01T17:01:19.479Z,2.85
2023-03-01T17:03:48.565Z,2.70
2023-03-01T17:06:18.673Z,2.90
2023-03-01T17:08:45.410Z,2.70
2023-03-01T17:11:15.327Z,2.72
2023-03-01T17:13:42.543Z,2.97
2023-03-01T17:16:12.402Z,2.58
2023-03-01T17:18:39.334Z,2.90
2023-03-01T17:21:07.884Z,2.67
2023-03-01T17:23:35.579Z,2.33
2023-03-01T17:26:02.914Z,2.50
2023-03-01T17:28:32.618Z,2.53
2023-03-01T17:31:01.090Z,2.60
2023-03-01T17:33:31.042Z,2.70
2023-03-01T17:35:58.658Z,2.42
2023-03-01T17:38:25.727Z,2.50
2023-03-01T17:40:52.652Z,2.63
2023-03-01T17:43:20.145Z,2.50
2023-03-01T17:45:52.328Z,2.78
2023-03-01T17:48:19.311Z,2.63
2023-03-01T17:50:46.359Z,2.90
2023-03-01T17:53:13.902Z,2.70
2023-03-01T17:55:42.382Z,2.53
2023-03-01T17:58:11.895Z,2.17
2023-03-01T18:00:39.122Z,2.60
2023-03-01T18:03:06.599Z,2.65
2023-03-01T18:05:34.979Z,2.60
2023-03-01T18:08:01.867Z,2.28
2023-03-01T18:10:28.770Z,2.70
2023-03-01T18:12:55.505Z,2.80
2023-03-01T18:15:22.211Z,2.70
2023-03-01T18:17:49.656Z,2.40
2023-03-01T18:20:17.928Z,3.00
2023-03-01T18:22:44.551Z,2.25
2023-03-01T18:25:11.372Z,2.67
2023-03-01T18:27:38.560Z,2.60
2023-03-01T18:30:07.709Z,3.03
2023-03-01T18:32:34.540Z,2.83
2023-03-01T18:35:01.340Z,2.28
2023-03-01T18:37:28.087Z,2.75
2023-03-01T18:39:54.800Z,2.47
2023-03-01T18:42:22.153Z,2.45
2023-03-01T18:44:49.402Z,2.30
2023-03-01T18:47:17.131Z,2.85
2023-03-01T18:49:44.409Z,2.53
2023-03-01T18:52:11.920Z,2.70
2023-03-01T18:54:38.634Z,2.97
2023-03-01T18:57:05.430Z,2.75
2023-03-01T18:59:32.466Z,2.97
2023-03-01T19:01:59.481Z,3.00
2023-03-01T19:04:27.313Z,2.83
2023-03-01T19:06:54.111Z,2.83
2023-03-01T19:09:21.056Z,3.15
2023-03-01T19:11:48.063Z,2.47
2023-03-01T19:14:14.867Z,2.78
2023-03-01T19:16:41.634Z,2.70
2023-03-01T19:19:10.167Z,3.05
2023-03-01T19:21:37.536Z,2.63
2023-03-01T19:24:04.559Z,2.75
2023-03-01T19:26:32.914Z,2.78
2023-03-01T19:29:00.738Z,2.42
2023-03-01T19:31:29.629Z,2.97
2023-03-01T19:34:15.662Z,2.60
2023-03-01T19:36:43.738Z,3.28
2023-03-01T19:39:13.754Z,2.90
2023-03-01T19:41:41.166Z,2.78
2023-03-01T19:44:08.767Z,2.70
2023-03-01T19:46:36.406Z,2.78
2023-03-01T19:49:03.766Z,2.70
2023-03-01T19:51:33.452Z,2.88
2023-03-01T19:54:00.735Z,3.10
2023-03-01T19:56:27.709Z,2.67
2023-03-01T19:59:00.473Z,2.85
2023-03-01T20:01:29.750Z,3.00
2023-03-01T20:03:56.560Z,2.75
2023-03-01T20:06:23.357Z,2.60
2023-03-01T20:08:50.045Z,2.83
2023-03-01T20:11:18.367Z,2.80
2023-03-01T20:13:45.737Z,2.55
2023-03-01T20:16:16.829Z,2.90
2023-03-01T20:18:43.618Z,2.83
2023-03-01T20:21:21.714Z,3.00
2023-03-01T20:23:50.032Z,2.42
2023-03-01T20:26:19.625Z,2.72
2023-03-01T20:28:48.580Z,3.15
2023-03-01T20:31:17.048Z,2.97
2023-03-01T20:33:44.598Z,3.20
2023-03-01T20:36:12.106Z,2.95
2023-03-01T20:38:39.418Z,2.78
2023-03-01T20:41:09.507Z,3.10
2023-03-01T20:43:37.143Z,2.90
2023-03-01T20:46:08.318Z,2.90
2023-03-01T20:48:37.912Z,3.15
2023-03-01T20:51:09.581Z,3.00
2023-03-01T20:53:36.504Z,3.28
2023-03-01T20:56:04.789Z,3.10
2023-03-01T20:58:35.757Z,2.72
2023-03-01T21:01:04.269Z,3.00
2023-03-01T21:03:31.791Z,2.55
2023-03-01T21:06:02.139Z,3.00
2023-03-01T21:08:30.050Z,3.00
2023-03-01T21:10:57.846Z,3.10
2023-03-01T21:13:26.347Z,2.60
2023-03-01T21:16:01.220Z,3.10
2023-03-01T21:18:30.047Z,3.03
2023-03-01T21:21:01.260Z,2.72
2023-03-01T21:23:32.591Z,3.40
2023-03-01T21:26:08.637Z,4.00
2023-03-01T21:28:37.222Z,3.05
2023-03-01T21:31:15.875Z,3.70
2023-03-01T21:33:48.488Z,3.25
2023-03-01T21:36:16.584Z,3.17
2023-03-01T21:38:46.441Z,3.40
2023-03-01T21:41:17.731Z,2.90
2023-03-01T21:43:46.268Z,4.00
2023-03-01T21:46:15.549Z,3.53
2023-03-01T21:48:45.129Z,3.05
2023-03-01T21:51:15.040Z,3.15
2023-03-01T21:53:42.615Z,3.20
2023-03-01T21:56:10.621Z,3.40
2023-03-01T21:58:37.358Z,3.40
2023-03-01T22:01:10.885Z,3.13
2023-03-01T22:03:46.655Z,3.15
2023-03-01T22:06:20.391Z,3.00
2023-03-01T22:08:59.004Z,3.05
2023-03-01T22:11:28.354Z,3.30
2023-03-01T22:13:56.573Z,3.30
2023-03-01T22:16:29.687Z,3.70
2023-03-01T22:18:57.800Z,3.78
2023-03-01T22:21:25.737Z,3.30
2023-03-01T22:23:54.234Z,3.30
2023-03-01T22:26:41.648Z,3.13
2023-03-01T22:29:14.943Z,3.50
2023-03-01T22:31:42.868Z,3.78
2023-03-01T22:34:10.336Z,3.67
2023-03-01T22:36:39.451Z,3.15
2023-03-01T22:39:06.595Z,3.70
2023-03-01T22:41:37.519Z,3.60
2023-03-01T22:44:04.523Z,3.60
2023-03-01T22:46:32.069Z,3.83
2023-03-01T22:48:59.016Z,3.50
2023-03-01T22:51:29.571Z,3.10
2023-03-01T22:53:57.106Z,3.28
2023-03-01T22:56:30.787Z,3.72
2023-03-01T22:58:59.277Z,3.17
2023-03-01T23:01:27.354Z,3.45
2023-03-01T23:03:54.170Z,3.40
2023-03-01T23:06:22.497Z,3.78
2023-03-01T23:08:54.904Z,3.42
2023-03-01T23:11:22.801Z,3.78
2023-03-01T23:13:50.379Z,3.63
2023-03-01T23:16:17.490Z,3.63
2023-03-01T23:18:45.106Z,3.80
2023-03-01T23:21:17.471Z,3.55
2023-03-01T23:23:47.049Z,3.10
2023-03-01T23:26:15.013Z,3.67
2023-03-01T23:28:42.253Z,3.35
2023-03-01T23:31:12.157Z,3.53
2023-03-01T23:33:39.703Z,3.78
2023-03-01T23:36:26.237Z,3.35
2023-03-01T23:38:59.851Z,3.30
2023-03-01T23:41:30.002Z,3.38
2023-03-01T23:43:58.874Z,3.40
2023-03-01T23:46:28.520Z,3.45
2023-03-01T23:48:56.038Z,3.80
2023-03-01T23:51:24.390Z,3.50
2023-03-01T23:53:55.625Z,3.33
2023-03-01T23:56:28.382Z,3.58
2023-03-01T23:58:57.574Z,4.10
